createdAt,value
2024-05-09T00:00:31.613Z,3.97
2024-05-09T00:03:05.280Z,3.90
2024-05-09T00:05:32.180Z,3.80
2024-05-09T00:07:59.157Z,4.07
2024-05-09T00:10:34.565Z,3.88
2024-05-09T00:13:03.849Z,3.90
2024-05-09T00:15:30.637Z,4.05
2024-05-09T00:17:57.370Z,3.92
2024-05-09T00:20:32.311Z,3.78
2024-05-09T00:23:03.927Z,4.03
2024-05-09T00:25:31.111Z,3.90
2024-05-09T00:28:00.571Z,4.25
2024-05-09T00:30:34.524Z,4.32
2024-05-09T00:33:04.645Z,4.18
2024-05-09T00:35:32.189Z,4.07
2024-05-09T00:37:59.812Z,4.10
2024-05-09T00:40:35.614Z,3.83
2024-05-09T00:43:08.741Z,4.15
2024-05-09T00:45:36.009Z,3.70
2024-05-09T00:48:03.265Z,3.53
2024-05-09T00:50:36.474Z,4.13
2024-05-09T00:53:05.320Z,3.95
2024-05-09T00:55:32.475Z,3.80
2024-05-09T00:57:59.666Z,4.25
2024-05-09T01:00:39.502Z,4.03
2024-05-09T01:03:08.217Z,3.72
2024-05-09T01:05:36.552Z,3.67
2024-05-09T01:08:03.447Z,4.13
2024-05-09T01:10:34.521Z,4.38
2024-05-09T01:13:03.385Z,4.05
2024-05-09T01:15:30.125Z,4.38
2024-05-09T01:17:57.049Z,3.60
2024-05-09T01:20:37.146Z,3.88
2024-05-09T01:23:10.030Z,4.15
2024-05-09T01:25:37.055Z,3.92
2024-05-09T01:28:03.771Z,3.58
2024-05-09T01:30:37.093Z,4.00
2024-05-09T01:33:06.139Z,3.78
2024-05-09T01:35:34.417Z,3.40
2024-05-09T01:38:01.533Z,3.50
2024-05-09T01:40:37.375Z,3.50
2024-05-09T01:43:10.105Z,3.50
2024-05-09T01:45:37.775Z,4.10
2024-05-09T01:48:04.852Z,3.80
2024-05-09T01:53:03.559Z,3.38
2024-05-09T01:55:30.143Z,3.70
2024-05-09T01:57:56.813Z,3.72
2024-05-09T02:00:34.155Z,3.80
2024-05-09T02:03:06.458Z,4.28
2024-05-09T02:05:33.520Z,3.97
2024-05-09T02:08:00.133Z,3.50
2024-05-09T02:10:32.288Z,3.47
2024-05-09T02:13:00.185Z,3.42
2024-05-09T02:15:26.776Z,3.50
2024-05-09T02:17:53.555Z,3.80
2024-05-09T02:20:30.074Z,3.53
2024-05-09T02:23:03.147Z,3.72
2024-05-09T02:25:32.365Z,3.75
2024-05-09T02:27:59.460Z,3.55
2024-05-09T02:30:35.922Z,3.53
2024-05-09T02:33:07.510Z,3.58
2024-05-09T02:35:35.053Z,4.18
2024-05-09T02:38:02.040Z,3.78
2024-05-09T02:40:36.109Z,3.63
2024-05-09T02:43:05.776Z,3.75
2024-05-09T02:45:32.491Z,4.10
2024-05-09T02:48:01.395Z,4.10
2024-05-09T02:50:34.697Z,3.35
2024-05-09T02:53:05.880Z,3.97
2024-05-09T02:55:33.329Z,3.42
2024-05-09T02:58:01.420Z,3.75
2024-05-09T03:00:36.765Z,4.05
2024-05-09T03:03:10.335Z,4.10
2024-05-09T03:05:39.472Z,4.18
2024-05-09T03:08:06.257Z,3.45
2024-05-09T03:10:36.459Z,4.05
2024-05-09T03:13:04.865Z,3.40
2024-05-09T03:15:31.768Z,3.72
2024-05-09T03:17:59.128Z,4.05
2024-05-09T03:20:33.014Z,3.80
2024-05-09T03:23:03.094Z,3.45
2024-05-09T03:25:29.929Z,4.00
2024-05-09T03:27:56.679Z,3.53
2024-05-09T03:30:30.943Z,4.18
2024-05-09T03:33:07.591Z,3.28
2024-05-09T03:35:34.560Z,3.50
2024-05-09T03:38:01.622Z,3.70
2024-05-09T03:40:30.871Z,3.80
2024-05-09T03:42:57.966Z,3.80
2024-05-09T03:45:24.611Z,3.55
2024-05-09T03:47:51.480Z,3.75
2024-05-09T03:50:25.831Z,3.58
2024-05-09T03:52:57.250Z,4.13
2024-05-09T03:55:23.966Z,3.60
2024-05-09T03:57:50.588Z,4.65
2024-05-09T04:00:22.612Z,4.07
2024-05-09T04:02:57.255Z,4.15
2024-05-09T04:05:24.391Z,4.35
2024-05-09T04:07:51.434Z,4.30
2024-05-09T04:10:27.645Z,3.85
2024-05-09T04:13:00.081Z,4.38
2024-05-09T04:15:26.604Z,4.60
2024-05-09T04:17:53.370Z,4.32
2024-05-09T04:20:29.397Z,4.47
2024-05-09T04:23:05.029Z,4.13
2024-05-09T04:25:31.767Z,4.78
2024-05-09T04:27:58.377Z,4.10
2024-05-09T04:30:34.961Z,3.72
2024-05-09T04:33:06.339Z,4.07
2024-05-09T04:35:33.818Z,4.35
2024-05-09T04:38:00.677Z,4.60
2024-05-09T04:40:33.224Z,3.92
2024-05-09T04:43:02.717Z,4.68
2024-05-09T04:45:29.410Z,4.40
2024-05-09T04:47:56.190Z,4.30
2024-05-09T04:50:30.187Z,4.20
2024-05-09T04:53:02.976Z,4.70
2024-05-09T04:55:30.130Z,4.13
2024-05-09T04:57:56.818Z,4.10
2024-05-09T05:00:32.374Z,4.25
2024-05-09T05:03:03.540Z,4.38
2024-05-09T05:05:30.665Z,4.38
2024-05-09T05:08:00.085Z,3.95
2024-05-09T05:10:35.040Z,4.45
2024-05-09T05:13:03.035Z,4.38
2024-05-09T05:15:29.583Z,4.22
2024-05-09T05:17:56.755Z,4.00
2024-05-09T05:20:30.916Z,4.70
2024-05-09T05:23:00.389Z,3.70
2024-05-09T05:25:28.558Z,3.75
2024-05-09T05:27:56.184Z,4.63
2024-05-09T05:30:28.779Z,3.88
2024-05-09T05:32:59.999Z,4.10
2024-05-09T05:35:27.182Z,4.13
2024-05-09T05:37:54.467Z,4.55
2024-05-09T05:40:35.931Z,3.97
2024-05-09T05:43:04.770Z,4.97
2024-05-09T05:45:33.795Z,5.07
2024-05-09T05:48:02.899Z,3.90
2024-05-09T05:50:35.529Z,4.10
2024-05-09T05:53:04.853Z,4.78
2024-05-09T05:55:32.687Z,4.30
2024-05-09T05:58:00.536Z,4.35
2024-05-09T06:00:34.444Z,4.85
2024-05-09T06:03:05.662Z,4.28
2024-05-09T06:05:32.885Z,4.43
2024-05-09T06:08:00.818Z,4.63
2024-05-09T06:10:37.081Z,4.03
2024-05-09T06:13:06.484Z,4.82
2024-05-09T06:15:33.502Z,4.60
2024-05-09T06:18:00.918Z,4.65
2024-05-09T06:20:35.557Z,4.60
2024-05-09T06:23:04.892Z,5.13
2024-05-09T06:25:31.831Z,4.30
2024-05-09T06:27:58.630Z,4.65
2024-05-09T06:30:30.765Z,4.28
2024-05-09T06:33:06.044Z,4.57
2024-05-09T06:35:33.516Z,4.55
2024-05-09T06:38:00.517Z,4.55
2024-05-09T06:40:36.240Z,4.10
2024-05-09T06:43:05.506Z,4.15
2024-05-09T06:45:32.162Z,4.75
2024-05-09T06:48:00.452Z,4.10
2024-05-09T06:50:31.140Z,3.80
2024-05-09T06:53:03.640Z,4.20
2024-05-09T06:55:30.638Z,3.90
2024-05-09T06:57:57.744Z,4.18
2024-05-09T07:00:34.346Z,4.00
2024-05-09T07:03:05.968Z,4.25
2024-05-09T07:05:32.835Z,4.35
2024-05-09T07:07:59.979Z,4.32
2024-05-09T07:10:32.854Z,3.80
2024-05-09T07:13:02.812Z,4.32
2024-05-09T07:15:29.376Z,4.63
2024-05-09T07:17:56.310Z,4.15
2024-05-09T07:20:32.077Z,4.55
2024-05-09T07:23:01.723Z,4.50
2024-05-09T07:25:28.709Z,4.53
2024-05-09T07:27:55.696Z,4.05
2024-05-09T07:30:27.722Z,4.13
2024-05-09T07:33:00.181Z,3.83
2024-05-09T07:35:28.578Z,3.55
2024-05-09T07:37:55.546Z,4.00
2024-05-09T07:40:31.687Z,3.75
2024-05-09T07:43:02.747Z,3.72
2024-05-09T07:45:45.662Z,3.70
2024-05-09T07:49:45.418Z,4.05
2024-05-09T07:53:41.084Z,3.50
2024-05-09T07:56:12.168Z,3.72
2024-05-09T07:58:39.166Z,4.28
2024-05-09T08:01:06.808Z,3.60
2024-05-09T08:03:34.228Z,3.92
2024-05-09T08:06:01.181Z,4.20
2024-05-09T08:08:27.911Z,3.85
2024-05-09T08:10:54.593Z,4.43
2024-05-09T08:13:21.381Z,3.97
2024-05-09T08:15:48.403Z,4.15
2024-05-09T08:18:18.334Z,4.35
2024-05-09T08:20:45.007Z,4.03
2024-05-09T08:23:11.612Z,3.95
2024-05-09T08:25:38.265Z,4.22
2024-05-09T08:28:05.069Z,3.40
2024-05-09T08:30:36.800Z,3.50
2024-05-09T08:33:06.307Z,3.78
2024-05-09T08:35:36.849Z,4.03
2024-05-09T08:38:04.160Z,3.97
2024-05-09T08:40:35.242Z,3.30
2024-05-09T08:43:03.703Z,3.90
2024-05-09T08:45:30.392Z,4.05
2024-05-09T08:47:57.229Z,3.97
2024-05-09T08:50:31.944Z,3.38
2024-05-09T08:53:05.234Z,3.97
2024-05-09T08:55:31.835Z,3.20
2024-05-09T08:58:00.254Z,3.10
2024-05-09T09:00:35.576Z,3.28
2024-05-09T09:03:03.828Z,3.42
2024-05-09T09:05:30.688Z,3.00
2024-05-09T09:07:57.999Z,3.38
2024-05-09T09:10:30.056Z,3.20
2024-05-09T09:12:58.954Z,3.15
2024-05-09T09:15:25.794Z,3.20
2024-05-09T09:17:52.722Z,2.83
2024-05-09T09:20:26.370Z,2.95
2024-05-09T09:23:00.389Z,2.85
2024-05-09T09:25:26.991Z,3.03
2024-05-09T09:27:55.997Z,2.90
2024-05-09T09:30:34.617Z,3.55
2024-05-09T09:33:04.676Z,3.05
2024-05-09T09:35:31.556Z,3.58
2024-05-09T09:37:58.667Z,2.83
2024-05-09T09:40:31.411Z,2.85
2024-05-09T09:43:00.345Z,3.13
2024-05-09T09:45:26.968Z,3.53
2024-05-09T09:47:53.987Z,3.60
2024-05-09T09:50:27.671Z,4.10
2024-05-09T09:53:00.545Z,3.70
2024-05-09T09:55:27.216Z,3.45
2024-05-09T09:57:53.830Z,3.10
2024-05-09T10:00:26.827Z,3.60
2024-05-09T10:02:57.106Z,3.28
2024-05-09T10:05:24.230Z,3.85
2024-05-09T10:07:51.926Z,3.15
2024-05-09T10:12:46.561Z,3.53
2024-05-09T10:15:13.554Z,3.88
2024-05-09T10:17:40.310Z,3.38
2024-05-09T10:20:17.960Z,3.67
2024-05-09T10:22:48.254Z,3.17
2024-05-09T10:25:15.515Z,2.70
2024-05-09T10:27:42.232Z,3.25
2024-05-09T10:30:14.588Z,3.03
2024-05-09T10:32:50.394Z,3.20
2024-05-09T10:35:17.100Z,3.25
2024-05-09T10:37:43.716Z,2.75
2024-05-09T10:40:17.232Z,3.28
2024-05-09T10:42:49.493Z,2.70
2024-05-09T10:45:18.680Z,3.50
2024-05-09T10:47:45.417Z,2.75
2024-05-09T10:50:18.604Z,3.47
2024-05-09T10:52:53.496Z,3.40
2024-05-09T10:55:20.341Z,2.90
2024-05-09T10:57:47.139Z,3.20
2024-05-09T11:00:27.065Z,2.88
2024-05-09T11:03:00.690Z,3.97
2024-05-09T11:05:27.957Z,3.50
2024-05-09T11:07:55.444Z,3.70
2024-05-09T11:10:27.836Z,3.80
2024-05-09T11:13:00.817Z,3.20
2024-05-09T11:15:36.948Z,3.17
2024-05-09T11:18:04.756Z,3.28
2024-05-09T11:20:34.760Z,4.00
2024-05-09T11:23:02.826Z,3.55
2024-05-09T11:25:29.680Z,3.08
2024-05-09T11:27:57.919Z,3.50
2024-05-09T11:30:30.063Z,3.90
2024-05-09T11:32:59.260Z,3.70
2024-05-09T11:35:26.423Z,4.20
2024-05-09T11:37:53.494Z,3.08
2024-05-09T11:40:25.502Z,3.13
2024-05-09T11:42:55.529Z,3.47
2024-05-09T11:45:22.600Z,3.30
2024-05-09T11:47:49.644Z,3.30
2024-05-09T11:50:26.699Z,3.65
2024-05-09T11:52:56.731Z,5.00
2024-05-09T11:55:27.623Z,3.78
2024-05-09T11:57:55.608Z,3.17
2024-05-09T12:00:29.651Z,7.95
2024-05-09T12:03:03.108Z,3.72
2024-05-09T12:05:30.454Z,5.90
2024-05-09T12:07:57.093Z,3.65
2024-05-09T12:12:55.206Z,3.50
2024-05-09T12:15:22.779Z,3.58
2024-05-09T12:17:50.945Z,3.50
2024-05-09T12:20:28.284Z,3.78
2024-05-09T12:23:02.324Z,3.97
2024-05-09T12:25:30.082Z,3.20
2024-05-09T12:27:57.154Z,3.30
2024-05-09T12:30:33.074Z,3.85
2024-05-09T12:33:05.218Z,3.33
2024-05-09T12:35:32.000Z,3.53
2024-05-09T12:37:58.646Z,3.70
2024-05-09T12:40:34.313Z,3.03
2024-05-09T12:43:05.176Z,3.35
2024-05-09T12:45:32.378Z,3.33
2024-05-09T12:47:59.739Z,3.10
2024-05-09T12:50:32.426Z,3.25
2024-05-09T12:53:01.101Z,3.35
2024-05-09T12:55:37.272Z,2.75
2024-05-09T12:58:13.381Z,3.00
2024-05-09T13:00:40.591Z,3.00
2024-05-09T13:03:07.416Z,2.53
2024-05-09T13:05:34.591Z,2.10
2024-05-09T13:08:02.564Z,2.55
2024-05-09T13:10:32.645Z,3.00
2024-05-09T13:13:01.046Z,2.47
2024-05-09T13:15:28.787Z,2.20
2024-05-09T13:17:58.126Z,2.67
2024-05-09T13:20:32.398Z,2.10
2024-05-09T13:23:02.359Z,2.30
2024-05-09T13:25:29.087Z,2.85
2024-05-09T13:27:55.756Z,2.58
2024-05-09T13:30:33.777Z,2.33
2024-05-09T13:33:06.117Z,2.67
2024-05-09T13:35:33.493Z,2.35
2024-05-09T13:38:00.091Z,2.35
2024-05-09T13:40:32.853Z,2.55
2024-05-09T13:43:03.314Z,2.65
2024-05-09T13:45:30.068Z,2.45
2024-05-09T13:47:56.995Z,2.15
2024-05-09T13:50:32.924Z,2.58
2024-05-09T13:53:02.432Z,2.40
2024-05-09T13:55:29.066Z,2.78
2024-05-09T13:57:56.117Z,2.60
2024-05-09T14:02:54.692Z,2.33
2024-05-09T14:05:23.601Z,2.45
2024-05-09T14:07:50.694Z,2.22
2024-05-09T14:10:23.416Z,2.75
2024-05-09T14:12:55.623Z,2.60
2024-05-09T14:15:22.343Z,2.00
2024-05-09T14:17:49.467Z,2.50
2024-05-09T14:20:23.716Z,2.38
2024-05-09T14:22:57.335Z,2.60
2024-05-09T14:25:24.098Z,2.30
2024-05-09T14:27:51.931Z,2.20
2024-05-09T14:30:30.191Z,2.25
2024-05-09T14:33:02.945Z,2.67
2024-05-09T14:35:30.680Z,2.70
2024-05-09T14:37:59.521Z,2.33
2024-05-09T14:40:36.659Z,2.65
2024-05-09T14:43:11.068Z,2.85
2024-05-09T14:45:38.315Z,2.30
2024-05-09T14:48:05.292Z,2.55
2024-05-09T14:50:36.670Z,2.00
2024-05-09T14:53:08.085Z,2.03
2024-05-09T14:55:34.972Z,2.20
2024-05-09T14:58:04.494Z,2.55
2024-05-09T15:00:36.055Z,2.25
2024-05-09T15:03:04.191Z,2.38
2024-05-09T15:05:31.043Z,2.80
2024-05-09T15:07:57.745Z,2.38
2024-05-09T15:10:33.647Z,2.92
2024-05-09T15:13:04.144Z,2.97
2024-05-09T15:15:31.184Z,2.33
2024-05-09T15:17:57.987Z,2.45
2024-05-09T15:20:33.000Z,2.40
2024-05-09T15:23:02.628Z,2.67
2024-05-09T15:25:29.802Z,2.75
2024-05-09T15:28:04.330Z,2.35
2024-05-09T15:30:33.397Z,2.40
2024-05-09T15:33:01.689Z,2.15
2024-05-09T15:35:28.274Z,2.72
2024-05-09T15:37:55.081Z,2.42
2024-05-09T15:40:30.912Z,2.60
2024-05-09T15:43:04.756Z,2.67
2024-05-09T15:45:31.590Z,2.30
2024-05-09T15:47:58.796Z,2.30
2024-05-09T15:50:36.096Z,2.30
2024-05-09T15:53:08.327Z,1.80
2024-05-09T15:55:43.046Z,2.30
2024-05-09T15:58:10.231Z,2.30
2024-05-09T16:00:40.837Z,2.63
2024-05-09T16:03:10.091Z,2.63
2024-05-09T16:05:37.755Z,2.33
2024-05-09T16:08:04.938Z,2.28
2024-05-09T16:10:33.369Z,2.30
2024-05-09T16:13:02.812Z,2.00
2024-05-09T16:15:30.366Z,2.35
2024-05-09T16:17:57.465Z,1.80
2024-05-09T16:20:35.215Z,2.67
2024-05-09T16:23:08.459Z,2.53
2024-05-09T16:25:38.637Z,1.95
2024-05-09T16:28:08.679Z,2.28
2024-05-09T16:30:37.382Z,2.80
2024-05-09T16:33:04.983Z,2.30
2024-05-09T16:35:32.490Z,2.10
2024-05-09T16:37:59.148Z,2.10
2024-05-09T16:40:34.475Z,2.35
2024-05-09T16:43:07.309Z,2.60
2024-05-09T16:45:34.353Z,2.10
2024-05-09T16:48:01.371Z,2.35
2024-05-09T16:50:32.299Z,2.10
2024-05-09T16:53:01.012Z,2.55
2024-05-09T16:55:27.728Z,2.00
2024-05-09T16:57:54.646Z,2.15
2024-05-09T17:00:31.356Z,2.45
2024-05-09T17:03:07.551Z,2.50
2024-05-09T17:05:34.904Z,2.13
2024-05-09T17:08:02.012Z,2.33
2024-05-09T17:10:33.086Z,2.25
2024-05-09T17:15:28.641Z,2.40
2024-05-09T17:17:55.438Z,2.10
2024-05-09T17:20:29.572Z,2.25
2024-05-09T17:23:07.930Z,2.25
2024-05-09T17:25:34.806Z,2.08
2024-05-09T17:28:02.971Z,3.17
2024-05-09T17:30:35.373Z,2.20
2024-05-09T17:33:04.220Z,2.58
2024-05-09T17:35:31.633Z,1.98
2024-05-09T17:37:58.550Z,2.13
2024-05-09T17:40:31.488Z,2.40
2024-05-09T17:43:02.121Z,2.22
2024-05-09T17:45:30.032Z,2.10
2024-05-09T17:48:00.461Z,2.33
2024-05-09T17:50:34.187Z,2.30
2024-05-09T17:53:03.290Z,2.60
2024-05-09T17:55:30.517Z,2.38
2024-05-09T17:57:57.547Z,2.40
2024-05-09T18:00:34.279Z,2.40
2024-05-09T18:03:09.196Z,2.53
2024-05-09T18:05:38.729Z,3.08
2024-05-09T18:08:06.171Z,2.47
2024-05-09T18:10:37.042Z,2.55
2024-05-09T18:13:06.505Z,2.13
2024-05-09T18:15:34.118Z,2.28
2024-05-09T18:18:02.481Z,2.47
2024-05-09T18:20:38.070Z,2.45
2024-05-09T18:23:11.107Z,2.55
2024-05-09T18:25:38.134Z,2.50
2024-05-09T18:28:05.902Z,2.60
2024-05-09T18:35:56.386Z,2.53
2024-05-09T21:17:32.966Z,2.83
2024-05-09T21:19:59.635Z,3.00
2024-05-09T21:22:26.742Z,2.58
2024-05-09T21:24:53.884Z,2.90
2024-05-09T21:27:22.045Z,2.70
2024-05-09T21:29:48.747Z,2.55
2024-05-09T21:32:17.095Z,2.75
2024-05-09T21:34:43.813Z,2.72
2024-05-09T21:37:11.138Z,3.00
2024-05-09T21:39:38.018Z,2.97
2024-05-09T21:42:04.857Z,3.10
2024-05-09T21:44:32.060Z,2.72
2024-05-09T21:47:00.495Z,3.03
2024-05-09T21:49:27.937Z,3.00
2024-05-09T21:51:54.605Z,3.17
2024-05-09T21:54:21.588Z,2.60
2024-05-09T21:56:49.047Z,3.00
2024-05-09T21:59:15.703Z,2.80
2024-05-09T22:12:41.001Z,2.75
2024-05-09T22:15:08.388Z,3.38
2024-05-09T22:17:36.709Z,3.22
2024-05-09T22:20:07.440Z,3.08
2024-05-09T22:22:39.281Z,3.13
2024-05-09T22:25:05.996Z,3.08
2024-05-09T22:27:32.881Z,2.83
2024-05-09T22:29:59.576Z,3.45
2024-05-09T22:32:26.254Z,3.38
2024-05-09T22:34:55.877Z,3.08
2024-05-09T22:37:22.768Z,2.85
2024-05-09T22:39:49.914Z,3.20
2024-05-09T22:42:17.102Z,3.25
2024-05-09T22:44:44.152Z,3.25
2024-05-09T22:47:11.093Z,3.05
2024-05-09T22:49:37.819Z,4.15
2024-05-09T22:52:04.643Z,3.63
2024-05-09T22:54:31.480Z,4.00
2024-05-09T22:56:59.205Z,3.90
2024-05-09T22:59:25.963Z,3.40
2024-05-09T23:01:52.767Z,3.55
2024-05-09T23:04:19.902Z,3.55
2024-05-09T23:06:47.253Z,3.58
2024-05-09T23:09:14.018Z,4.25
2024-05-09T23:11:42.220Z,3.72
2024-05-09T23:14:08.905Z,3.78
2024-05-09T23:16:36.343Z,3.80
2024-05-09T23:19:03.102Z,3.50
2024-05-09T23:21:29.896Z,3.67
2024-05-09T23:23:56.816Z,3.45
2024-05-09T23:26:23.342Z,3.42
2024-05-09T23:28:50.035Z,3.55
2024-05-09T23:31:17.084Z,3.67
2024-05-09T23:33:44.106Z,3.40
2024-05-09T23:36:11.015Z,3.42
2024-05-09T23:38:37.726Z,3.33
2024-05-09T23:41:04.612Z,3.47
2024-05-09T23:43:31.693Z,3.25
2024-05-09T23:45:59.246Z,3.33
2024-05-09T23:48:26.029Z,3.50
2024-05-09T23:50:52.769Z,3.10
2024-05-09T23:53:19.542Z,3.05
2024-05-09T23:55:46.289Z,3.55
2024-05-09T23:58:13.029Z,3.20
